sensor_id;sensor_type;location;lat;lon;timestamp;pressure;altitude;pressure_sealevel;temperature;humidity
42247;BME280;27913;42.722;23.268;2023-01-26T00:00:58;95399.00;;;-0.37;87.45
42247;BME280;27913;42.722;23.268;2023-01-26T00:03:24;95457.47;;;0.02;87.47
42247;BME280;27913;42.722;23.268;2023-01-26T00:05:50;95468.47;;;-0.08;87.72
42247;BME280;27913;42.722;23.268;2023-01-26T00:08:15;95465.28;;;-0.11;87.48
42247;BME280;27913;42.722;23.268;2023-01-26T00:10:41;95456.56;;;-0.10;86.99
42247;BME280;27913;42.722;23.268;2023-01-26T00:13:16;95459.56;;;-0.04;86.89
42247;BME280;27913;42.722;23.268;2023-01-26T00:15:43;95406.13;;;-0.41;86.67
42247;BME280;27913;42.722;23.268;2023-01-26T00:18:09;95435.38;;;-0.40;86.94
42247;BME280;27913;42.722;23.268;2023-01-26T00:20:34;95453.28;;;-0.37;87.41
42247;BME280;27913;42.722;23.268;2023-01-26T00:23:00;95429.41;;;-0.54;87.40
42247;BME280;27913;42.722;23.268;2023-01-26T00:25:25;95405.56;;;-0.57;87.05
42247;BME280;27913;42.722;23.268;2023-01-26T00:27:51;95404.03;;;-0.60;86.74
42247;BME280;27913;42.722;23.268;2023-01-26T00:30:16;95456.00;;;-0.14;87.35
42247;BME280;27913;42.722;23.268;2023-01-26T00:32:42;95350.34;;;-0.81;86.33
42247;BME280;27913;42.722;23.268;2023-01-26T00:35:07;95452.69;;;-0.16;86.66
42247;BME280;27913;42.722;23.268;2023-01-26T00:37:33;95339.81;;;-0.78;86.60
42247;BME280;27913;42.722;23.268;2023-01-26T00:39:59;95444.38;;;-0.08;86.86
42247;BME280;27913;42.722;23.268;2023-01-26T00:42:24;95407.25;;;-0.32;86.37
42247;BME280;27913;42.722;23.268;2023-01-26T00:44:50;95385.78;;;-0.45;86.20
42247;BME280;27913;42.722;23.268;2023-01-26T00:47:16;95405.22;;;-0.53;86.86
42247;BME280;27913;42.722;23.268;2023-01-26T00:49:43;95370.56;;;-0.75;86.87
42247;BME280;27913;42.722;23.268;2023-01-26T00:52:10;95427.69;;;-0.29;86.87
42247;BME280;27913;42.722;23.268;2023-01-26T00:54:36;95398.19;;;-0.51;85.91
42247;BME280;27913;42.722;23.268;2023-01-26T00:57:02;95435.22;;;-0.26;85.96
42247;BME280;27913;42.722;23.268;2023-01-26T00:59:27;95305.59;;;-1.06;86.16
42247;BME280;27913;42.722;23.268;2023-01-26T01:04:29;95278.44;;;-1.25;85.87
42247;BME280;27913;42.722;23.268;2023-01-26T01:06:56;95425.63;;;-0.23;86.41
42247;BME280;27913;42.722;23.268;2023-01-26T01:09:22;95420.78;;;-0.28;85.92
42247;BME280;27913;42.722;23.268;2023-01-26T01:11:48;95257.22;;;-1.28;85.89
42247;BME280;27913;42.722;23.268;2023-01-26T01:14:13;95416.91;;;-0.22;85.68
42247;BME280;27913;42.722;23.268;2023-01-26T01:16:39;95386.50;;;-0.43;85.82
42247;BME280;27913;42.722;23.268;2023-01-26T01:19:05;95395.56;;;-0.38;85.65
42247;BME280;27913;42.722;23.268;2023-01-26T01:21:31;95423.03;;;-0.23;85.25
42247;BME280;27913;42.722;23.268;2023-01-26T01:23:57;95415.75;;;-0.18;85.25
42247;BME280;27913;42.722;23.268;2023-01-26T01:26:23;95312.75;;;-0.85;84.70
42247;BME280;27913;42.722;23.268;2023-01-26T01:28:52;95417.28;;;-0.16;84.41
42247;BME280;27913;42.722;23.268;2023-01-26T01:31:18;95421.06;;;-0.20;84.06
42247;BME280;27913;42.722;23.268;2023-01-26T01:33:44;95400.47;;;-0.21;83.95
42247;BME280;27913;42.722;23.268;2023-01-26T01:36:12;95398.59;;;-0.19;83.67
42247;BME280;27913;42.722;23.268;2023-01-26T01:38:38;95385.28;;;-0.26;83.90
42247;BME280;27913;42.722;23.268;2023-01-26T01:41:04;95353.88;;;-0.57;83.59
42247;BME280;27913;42.722;23.268;2023-01-26T01:43:30;95409.88;;;-0.20;83.81
42247;BME280;27913;42.722;23.268;2023-01-26T01:45:58;95300.88;;;-0.88;83.65
42247;BME280;27913;42.722;23.268;2023-01-26T01:51:07;95368.59;;;-0.33;83.31
42247;BME280;27913;42.722;23.268;2023-01-26T01:53:38;95356.84;;;-0.51;83.13
42247;BME280;27913;42.722;23.268;2023-01-26T01:56:11;95398.50;;;-0.18;82.57
42247;BME280;27913;42.722;23.268;2023-01-26T01:58:40;95400.41;;;-0.33;82.74
42247;BME280;27913;42.722;23.268;2023-01-26T02:01:08;95302.94;;;-0.93;82.86
42247;BME280;27913;42.722;23.268;2023-01-26T02:03:34;95331.06;;;-0.64;82.51
42247;BME280;27913;42.722;23.268;2023-01-26T02:06:15;95395.84;;;-0.29;82.43
42247;BME280;27913;42.722;23.268;2023-01-26T02:08:47;95392.53;;;-0.31;82.95
42247;BME280;27913;42.722;23.268;2023-01-26T02:11:16;95384.91;;;-0.33;82.82
42247;BME280;27913;42.722;23.268;2023-01-26T02:13:45;95218.44;;;-1.40;82.21
42247;BME280;27913;42.722;23.268;2023-01-26T02:16:13;95375.63;;;-0.35;82.78
42247;BME280;27913;42.722;23.268;2023-01-26T02:18:40;95369.84;;;-0.39;82.58
42247;BME280;27913;42.722;23.268;2023-01-26T02:21:06;95357.28;;;-0.32;82.58
42247;BME280;27913;42.722;23.268;2023-01-26T02:23:43;95311.81;;;-0.59;82.43
42247;BME280;27913;42.722;23.268;2023-01-26T02:26:20;95297.59;;;-0.65;82.49
42247;BME280;27913;42.722;23.268;2023-01-26T02:28:47;95251.63;;;-0.98;82.86
42247;BME280;27913;42.722;23.268;2023-01-26T02:31:14;95350.66;;;-0.48;83.34
42247;BME280;27913;42.722;23.268;2023-01-26T02:33:40;95345.84;;;-0.41;83.32
42247;BME280;27913;42.722;23.268;2023-01-26T02:36:09;95203.22;;;-1.31;83.47
42247;BME280;27913;42.722;23.268;2023-01-26T02:38:39;95234.09;;;-1.05;83.30
42247;BME280;27913;42.722;23.268;2023-01-26T02:41:07;95276.09;;;-0.90;82.80
42247;BME280;27913;42.722;23.268;2023-01-26T02:43:34;95343.28;;;-0.41;83.02
42247;BME280;27913;42.722;23.268;2023-01-26T02:46:00;95323.75;;;-0.45;82.99
42247;BME280;27913;42.722;23.268;2023-01-26T02:48:26;95323.44;;;-0.41;82.88
42247;BME280;27913;42.722;23.268;2023-01-26T02:51:10;95213.66;;;-1.08;83.05
42247;BME280;27913;42.722;23.268;2023-01-26T02:53:35;95319.75;;;-0.50;83.12
42247;BME280;27913;42.722;23.268;2023-01-26T02:56:01;95253.78;;;-0.91;83.47
42247;BME280;27913;42.722;23.268;2023-01-26T02:58:26;95332.88;;;-0.53;83.49
42247;BME280;27913;42.722;23.268;2023-01-26T03:00:52;95310.91;;;-0.58;83.72
42247;BME280;27913;42.722;23.268;2023-01-26T03:03:21;95137.09;;;-1.70;83.89
42247;BME280;27913;42.722;23.268;2023-01-26T03:05:47;95316.69;;;-0.55;83.95
42247;BME280;27913;42.722;23.268;2023-01-26T03:08:13;95295.28;;;-0.57;84.13
42247;BME280;27913;42.722;23.268;2023-01-26T03:10:39;95304.28;;;-0.63;83.73
42247;BME280;27913;42.722;23.268;2023-01-26T03:13:04;95305.97;;;-0.62;83.90
42247;BME280;27913;42.722;23.268;2023-01-26T03:15:30;95270.22;;;-0.92;84.32
42247;BME280;27913;42.722;23.268;2023-01-26T03:18:10;95286.78;;;-0.70;84.47
42247;BME280;27913;42.722;23.268;2023-01-26T03:20:57;95292.63;;;-0.68;84.18
42247;BME280;27913;42.722;23.268;2023-01-26T03:23:42;95287.56;;;-0.70;84.25
42247;BME280;27913;42.722;23.268;2023-01-26T03:26:26;95285.94;;;-0.71;84.31
42247;BME280;27913;42.722;23.268;2023-01-26T03:29:10;95290.66;;;-0.65;84.43
42247;BME280;27913;42.722;23.268;2023-01-26T03:31:36;95222.38;;;-1.10;84.23
42247;BME280;27913;42.722;23.268;2023-01-26T03:34:01;95226.88;;;-1.00;83.93
42247;BME280;27913;42.722;23.268;2023-01-26T03:36:27;95282.72;;;-0.62;84.21
42247;BME280;27913;42.722;23.268;2023-01-26T03:38:52;95270.81;;;-0.64;84.17
42247;BME280;27913;42.722;23.268;2023-01-26T03:41:18;95272.25;;;-0.84;84.57
42247;BME280;27913;42.722;23.268;2023-01-26T03:44:02;95270.53;;;-0.97;85.03
42247;BME280;27913;42.722;23.268;2023-01-26T03:46:46;95276.00;;;-0.89;84.62
42247;BME280;27913;42.722;23.268;2023-01-26T03:49:29;95137.91;;;-1.70;84.33
42247;BME280;27913;42.722;23.268;2023-01-26T03:52:13;95242.69;;;-1.05;84.46
42247;BME280;27913;42.722;23.268;2023-01-26T03:54:57;95162.41;;;-1.51;84.33
42247;BME280;27913;42.722;23.268;2023-01-26T03:57:41;95265.00;;;-0.79;84.58
42247;BME280;27913;42.722;23.268;2023-01-26T04:00:07;95266.53;;;-0.77;84.79
42247;BME280;27913;42.722;23.268;2023-01-26T04:02:33;95260.97;;;-0.83;84.87
42247;BME280;27913;42.722;23.268;2023-01-26T04:05:17;95251.59;;;-0.84;84.87
42247;BME280;27913;42.722;23.268;2023-01-26T04:08:05;95254.56;;;-0.78;84.75
42247;BME280;27913;42.722;23.268;2023-01-26T04:10:50;95251.63;;;-0.73;84.68
42247;BME280;27913;42.722;23.268;2023-01-26T04:13:17;95194.47;;;-1.04;84.86
42247;BME280;27913;42.722;23.268;2023-01-26T04:16:02;95240.34;;;-0.72;84.67
42247;BME280;27913;42.722;23.268;2023-01-26T04:18:48;95229.66;;;-0.79;85.27
42247;BME280;27913;42.722;23.268;2023-01-26T04:21:32;95040.41;;;-1.89;85.27
42247;BME280;27913;42.722;23.268;2023-01-26T04:24:00;95212.66;;;-0.70;85.14
42247;BME280;27913;42.722;23.268;2023-01-26T04:26:28;94950.22;;;-2.26;84.75
42247;BME280;27913;42.722;23.268;2023-01-26T04:29:10;94943.28;;;-2.37;84.75
42247;BME280;27913;42.722;23.268;2023-01-26T04:31:36;95209.72;;;-0.77;84.79
42247;BME280;27913;42.722;23.268;2023-01-26T04:34:03;95015.00;;;-2.07;84.84
42247;BME280;27913;42.722;23.268;2023-01-26T04:36:30;95211.19;;;-0.86;85.07
42247;BME280;27913;42.722;23.268;2023-01-26T04:38:55;95022.75;;;-2.20;84.08
42247;BME280;27913;42.722;23.268;2023-01-26T04:41:21;95034.38;;;-2.01;84.61
42247;BME280;27913;42.722;23.268;2023-01-26T04:43:47;95211.91;;;-0.83;84.70
42247;BME280;27913;42.722;23.268;2023-01-26T04:46:12;95101.22;;;-1.49;84.67
42247;BME280;27913;42.722;23.268;2023-01-26T04:48:38;95203.38;;;-0.73;84.70
42247;BME280;27913;42.722;23.268;2023-01-26T04:51:11;95121.69;;;-1.34;84.59
42247;BME280;27913;42.722;23.268;2023-01-26T04:53:37;95215.97;;;-0.68;84.54
42247;BME280;27913;42.722;23.268;2023-01-26T04:56:02;95153.38;;;-1.07;84.49
42247;BME280;27913;42.722;23.268;2023-01-26T04:58:28;95116.81;;;-1.26;84.43
42247;BME280;27913;42.722;23.268;2023-01-26T05:00:56;95200.94;;;-0.74;84.01
42247;BME280;27913;42.722;23.268;2023-01-26T05:03:22;95195.44;;;-0.94;84.03
42247;BME280;27913;42.722;23.268;2023-01-26T05:05:49;95214.28;;;-0.80;84.26
42247;BME280;27913;42.722;23.268;2023-01-26T05:08:15;95195.94;;;-0.89;84.34
42247;BME280;27913;42.722;23.268;2023-01-26T05:10:41;95227.00;;;-0.66;83.88
42247;BME280;27913;42.722;23.268;2023-01-26T05:13:07;95095.66;;;-1.31;83.28
42247;BME280;27913;42.722;23.268;2023-01-26T05:15:33;95105.31;;;-1.22;83.08
42247;BME280;27913;42.722;23.268;2023-01-26T05:17:58;95201.59;;;-0.83;83.58
42247;BME280;27913;42.722;23.268;2023-01-26T05:20:24;94940.47;;;-2.34;83.45
42247;BME280;27913;42.722;23.268;2023-01-26T05:22:50;95181.97;;;-0.86;83.69
42247;BME280;27913;42.722;23.268;2023-01-26T05:25:15;95205.03;;;-0.71;83.24
42247;BME280;27913;42.722;23.268;2023-01-26T05:27:41;95215.97;;;-0.68;83.51
42247;BME280;27913;42.722;23.268;2023-01-26T05:30:07;95203.16;;;-0.69;83.80
42247;BME280;27913;42.722;23.268;2023-01-26T05:32:33;95188.13;;;-0.76;83.55
42247;BME280;27913;42.722;23.268;2023-01-26T05:34:58;95198.59;;;-0.66;83.37
42247;BME280;27913;42.722;23.268;2023-01-26T05:37:25;95207.19;;;-0.54;83.30
42247;BME280;27913;42.722;23.268;2023-01-26T05:39:50;95200.03;;;-0.62;83.53
42247;BME280;27913;42.722;23.268;2023-01-26T05:42:16;95197.44;;;-0.62;83.92
42247;BME280;27913;42.722;23.268;2023-01-26T05:44:42;95209.72;;;-0.77;83.92
42247;BME280;27913;42.722;23.268;2023-01-26T05:47:07;95209.59;;;-0.75;83.66
42247;BME280;27913;42.722;23.268;2023-01-26T05:49:33;95144.56;;;-1.05;83.51
42247;BME280;27913;42.722;23.268;2023-01-26T05:51:59;95116.97;;;-1.40;83.28
42247;BME280;27913;42.722;23.268;2023-01-26T05:54:24;95205.59;;;-0.79;83.29
42247;BME280;27913;42.722;23.268;2023-01-26T05:56:50;95224.16;;;-0.74;83.27
42247;BME280;27913;42.722;23.268;2023-01-26T05:59:17;95018.34;;;-1.93;83.50
42247;BME280;27913;42.722;23.268;2023-01-26T06:01:43;95213.59;;;-0.71;83.73
42247;BME280;27913;42.722;23.268;2023-01-26T06:04:09;95206.13;;;-0.63;83.64
42247;BME280;27913;42.722;23.268;2023-01-26T06:06:34;95133.75;;;-1.10;83.02
42247;BME280;27913;42.722;23.268;2023-01-26T06:09:00;95200.72;;;-0.59;83.30
42247;BME280;27913;42.722;23.268;2023-01-26T06:11:25;95133.09;;;-1.01;83.43
42247;BME280;27913;42.722;23.268;2023-01-26T06:13:51;95195.44;;;-0.58;83.47
42247;BME280;27913;42.722;23.268;2023-01-26T06:16:16;94923.44;;;-2.24;83.40
42247;BME280;27913;42.722;23.268;2023-01-26T06:18:42;95143.81;;;-0.82;83.42
42247;BME280;27913;42.722;23.268;2023-01-26T06:21:07;95177.69;;;-0.63;83.56
42247;BME280;27913;42.722;23.268;2023-01-26T06:23:33;95100.56;;;-1.03;83.32
42247;BME280;27913;42.722;23.268;2023-01-26T06:25:59;95183.38;;;-0.46;83.53
42247;BME280;27913;42.722;23.268;2023-01-26T06:28:25;95168.44;;;-0.54;83.29
42247;BME280;27913;42.722;23.268;2023-01-26T06:30:50;95170.91;;;-0.52;83.28
42247;BME280;27913;42.722;23.268;2023-01-26T06:33:16;95144.34;;;-0.66;83.20
42247;BME280;27913;42.722;23.268;2023-01-26T06:35:41;95116.94;;;-0.80;83.12
42247;BME280;27913;42.722;23.268;2023-01-26T06:38:06;95186.47;;;-0.29;82.84
42247;BME280;27913;42.722;23.268;2023-01-26T06:40:32;95193.28;;;-0.28;82.46
42247;BME280;27913;42.722;23.268;2023-01-26T06:42:57;95169.03;;;-0.50;83.21
42247;BME280;27913;42.722;23.268;2023-01-26T06:45:23;95182.56;;;-0.46;82.92
42247;BME280;27913;42.722;23.268;2023-01-26T06:47:49;95177.63;;;-0.38;83.29
42247;BME280;27913;42.722;23.268;2023-01-26T06:50:21;95129.75;;;-0.78;83.19
42247;BME280;27913;42.722;23.268;2023-01-26T06:53:23;95072.50;;;-1.08;83.24
42247;BME280;27913;42.722;23.268;2023-01-26T06:55:49;94978.50;;;-1.64;83.13
42247;BME280;27913;42.722;23.268;2023-01-26T06:58:16;95158.50;;;-0.35;83.29
42247;BME280;27913;42.722;23.268;2023-01-26T07:00:42;95113.47;;;-0.67;83.17
42247;BME280;27913;42.722;23.268;2023-01-26T07:03:09;95164.94;;;-0.30;83.29
42247;BME280;27913;42.722;23.268;2023-01-26T07:05:35;95140.53;;;-0.37;83.29
42247;BME280;27913;42.722;23.268;2023-01-26T07:08:00;95114.53;;;-0.47;83.19
42247;BME280;27913;42.722;23.268;2023-01-26T07:10:28;95050.94;;;-0.95;83.35
42247;BME280;27913;42.722;23.268;2023-01-26T07:12:54;95102.22;;;-0.55;83.55
42247;BME280;27913;42.722;23.268;2023-01-26T07:15:20;94957.47;;;-1.35;83.25
42247;BME280;27913;42.722;23.268;2023-01-26T07:17:45;95080.56;;;-0.77;83.81
42247;BME280;27913;42.722;23.268;2023-01-26T07:20:11;95152.50;;;-0.36;84.57
42247;BME280;27913;42.722;23.268;2023-01-26T07:22:37;95150.88;;;-0.37;84.65
42247;BME280;27913;42.722;23.268;2023-01-26T07:25:03;95012.25;;;-1.31;83.99
42247;BME280;27913;42.722;23.268;2023-01-26T07:27:28;95150.38;;;-0.31;84.41
42247;BME280;27913;42.722;23.268;2023-01-26T07:29:54;95074.94;;;-0.70;84.28
42247;BME280;27913;42.722;23.268;2023-01-26T07:32:19;95105.47;;;-0.64;84.00
42247;BME280;27913;42.722;23.268;2023-01-26T07:34:45;94852.38;;;-2.15;83.80
42247;BME280;27913;42.722;23.268;2023-01-26T07:37:10;95143.59;;;-0.20;84.38
42247;BME280;27913;42.722;23.268;2023-01-26T07:39:36;95143.34;;;-0.17;84.15
42247;BME280;27913;42.722;23.268;2023-01-26T07:42:01;95144.41;;;-0.20;84.28
42247;BME280;27913;42.722;23.268;2023-01-26T07:44:28;95143.22;;;-0.16;84.03
42247;BME280;27913;42.722;23.268;2023-01-26T07:46:53;95143.47;;;-0.07;84.18
42247;BME280;27913;42.722;23.268;2023-01-26T07:49:19;95138.88;;;-0.15;84.36
42247;BME280;27913;42.722;23.268;2023-01-26T07:51:44;95129.47;;;-0.05;84.97
42247;BME280;27913;42.722;23.268;2023-01-26T07:54:10;95039.84;;;-0.62;85.51
42247;BME280;27913;42.722;23.268;2023-01-26T07:56:37;95053.56;;;-0.38;85.78
42247;BME280;27913;42.722;23.268;2023-01-26T07:59:03;95146.88;;;0.16;85.63
42247;BME280;27913;42.722;23.268;2023-01-26T08:01:28;94970.88;;;-1.07;84.95
42247;BME280;27913;42.722;23.268;2023-01-26T08:03:54;95151.56;;;0.11;85.16
42247;BME280;27913;42.722;23.268;2023-01-26T08:06:21;95134.06;;;0.15;85.10
42247;BME280;27913;42.722;23.268;2023-01-26T08:08:47;95124.66;;;0.14;85.00
42247;BME280;27913;42.722;23.268;2023-01-26T08:11:18;95105.97;;;0.10;85.16
42247;BME280;27913;42.722;23.268;2023-01-26T08:13:46;95016.47;;;-0.37;84.76
42247;BME280;27913;42.722;23.268;2023-01-26T08:16:12;94857.66;;;-1.35;84.02
42247;BME280;27913;42.722;23.268;2023-01-26T08:18:39;95115.34;;;0.34;84.15
42247;BME280;27913;42.722;23.268;2023-01-26T08:21:04;95109.22;;;0.35;84.18
42247;BME280;27913;42.722;23.268;2023-01-26T08:23:30;95112.94;;;0.42;83.58
42247;BME280;27913;42.722;23.268;2023-01-26T08:26:07;94895.06;;;-0.94;82.91
42247;BME280;27913;42.722;23.268;2023-01-26T08:28:34;95098.00;;;0.46;82.74
42247;BME280;27913;42.722;23.268;2023-01-26T08:31:08;94916.56;;;-0.71;82.20
42247;BME280;27913;42.722;23.268;2023-01-26T08:33:39;95101.31;;;0.48;83.03
42247;BME280;27913;42.722;23.268;2023-01-26T08:36:07;95060.53;;;0.29;83.55
42247;BME280;27913;42.722;23.268;2023-01-26T08:38:33;95059.50;;;0.20;82.91
42247;BME280;27913;42.722;23.268;2023-01-26T08:40:59;95100.25;;;0.39;80.99
42247;BME280;27913;42.722;23.268;2023-01-26T08:43:26;95095.06;;;0.51;81.15
42247;BME280;27913;42.722;23.268;2023-01-26T08:45:52;95059.03;;;0.26;80.46
42247;BME280;27913;42.722;23.268;2023-01-26T08:48:17;95104.84;;;0.47;79.35
42247;BME280;27913;42.722;23.268;2023-01-26T08:50:43;95105.88;;;0.56;79.73
42247;BME280;27913;42.722;23.268;2023-01-26T08:53:09;95119.28;;;0.61;79.67
42247;BME280;27913;42.722;23.268;2023-01-26T08:55:34;95109.38;;;0.66;79.40
42247;BME280;27913;42.722;23.268;2023-01-26T08:58:00;95022.16;;;0.01;79.08
42247;BME280;27913;42.722;23.268;2023-01-26T09:00:26;95008.78;;;-0.04;78.82
42247;BME280;27913;42.722;23.268;2023-01-26T09:03:03;95063.25;;;0.27;79.16
42247;BME280;27913;42.722;23.268;2023-01-26T09:05:34;95107.63;;;0.55;79.16
42247;BME280;27913;42.722;23.268;2023-01-26T09:08:00;95108.94;;;0.50;78.66
42247;BME280;27913;42.722;23.268;2023-01-26T09:10:26;95071.94;;;0.38;77.87
42247;BME280;27913;42.722;23.268;2023-01-26T09:12:51;95093.53;;;0.48;77.54
42247;BME280;27913;42.722;23.268;2023-01-26T09:15:17;95100.38;;;0.49;77.34
42247;BME280;27913;42.722;23.268;2023-01-26T09:17:42;95031.34;;;0.05;77.34
42247;BME280;27913;42.722;23.268;2023-01-26T09:20:11;95089.53;;;0.55;77.32
42247;BME280;27913;42.722;23.268;2023-01-26T09:22:36;94983.50;;;-0.12;77.07
42247;BME280;27913;42.722;23.268;2023-01-26T09:25:02;95088.03;;;0.41;77.53
42247;BME280;27913;42.722;23.268;2023-01-26T09:27:28;95099.78;;;0.45;77.51
42247;BME280;27913;42.722;23.268;2023-01-26T09:29:53;94943.19;;;-0.47;77.62
42247;BME280;27913;42.722;23.268;2023-01-26T09:32:20;95083.09;;;0.38;77.32
42247;BME280;27913;42.722;23.268;2023-01-26T09:34:46;95071.22;;;0.35;77.28
42247;BME280;27913;42.722;23.268;2023-01-26T09:37:12;95066.75;;;0.38;77.44
42247;BME280;27913;42.722;23.268;2023-01-26T09:39:37;95049.66;;;0.46;77.75
42247;BME280;27913;42.722;23.268;2023-01-26T09:48:04;95069.91;;;0.41;77.84
42247;BME280;27913;42.722;23.268;2023-01-26T09:50:56;95072.38;;;0.43;77.81
42247;BME280;27913;42.722;23.268;2023-01-26T09:53:44;95014.25;;;0.14;77.73
42247;BME280;27913;42.722;23.268;2023-01-26T09:56:16;94966.13;;;-0.10;77.68
42247;BME280;27913;42.722;23.268;2023-01-26T09:58:46;94898.31;;;-0.46;77.58
42247;BME280;27913;42.722;23.268;2023-01-26T10:01:21;94943.81;;;-0.22;77.79
42247;BME280;27913;42.722;23.268;2023-01-26T10:04:03;95009.06;;;0.14;78.17
42247;BME280;27913;42.722;23.268;2023-01-26T10:06:31;95057.09;;;0.40;78.44
42247;BME280;27913;42.722;23.268;2023-01-26T10:09:00;94813.28;;;-1.05;78.06
42247;BME280;27913;42.722;23.268;2023-01-26T10:11:39;94942.31;;;-0.25;78.27
42247;BME280;27913;42.722;23.268;2023-01-26T10:14:14;95043.09;;;0.42;78.47
42247;BME280;27913;42.722;23.268;2023-01-26T10:16:42;94853.84;;;-0.73;77.64
42247;BME280;27913;42.722;23.268;2023-01-26T10:19:40;95024.50;;;0.37;77.57
42247;BME280;27913;42.722;23.268;2023-01-26T10:22:24;94981.19;;;0.18;78.22
42247;BME280;27913;42.722;23.268;2023-01-26T10:24:55;94718.19;;;-1.33;78.27
42247;BME280;27913;42.722;23.268;2023-01-26T10:27:21;95004.09;;;0.55;77.86
42247;BME280;27913;42.722;23.268;2023-01-26T10:29:47;94859.94;;;-0.30;78.08
42247;BME280;27913;42.722;23.268;2023-01-26T10:32:14;94980.13;;;0.53;77.76
42247;BME280;27913;42.722;23.268;2023-01-26T10:34:41;94842.22;;;-0.23;77.45
42247;BME280;27913;42.722;23.268;2023-01-26T10:37:20;94865.72;;;-0.05;77.84
42247;BME280;27913;42.722;23.268;2023-01-26T10:40:04;94955.19;;;0.74;77.58
42247;BME280;27913;42.722;23.268;2023-01-26T10:42:34;94763.56;;;-0.42;77.29
42247;BME280;27913;42.722;23.268;2023-01-26T10:45:03;94946.03;;;0.69;77.52
42247;BME280;27913;42.722;23.268;2023-01-26T10:47:29;94931.81;;;0.64;77.66
42247;BME280;27913;42.722;23.268;2023-01-26T10:50:17;94928.34;;;0.75;77.31
42247;BME280;27913;42.722;23.268;2023-01-26T10:53:04;94685.34;;;-0.87;76.90
42247;BME280;27913;42.722;23.268;2023-01-26T10:55:31;94835.16;;;0.01;77.52
42247;BME280;27913;42.722;23.268;2023-01-26T10:57:57;94829.72;;;0.04;77.36
42247;BME280;27913;42.722;23.268;2023-01-26T11:00:24;94869.53;;;0.34;77.27
42247;BME280;27913;42.722;23.268;2023-01-26T11:02:52;94913.19;;;0.70;77.49
42247;BME280;27913;42.722;23.268;2023-01-26T11:05:21;94905.47;;;0.80;76.98
42247;BME280;27913;42.722;23.268;2023-01-26T11:07:54;94792.69;;;0.25;76.84
42247;BME280;27913;42.722;23.268;2023-01-26T11:15:49;94873.41;;;1.02;76.96
42247;BME280;27913;42.722;23.268;2023-01-26T11:18:32;94875.91;;;1.14;76.17
42247;BME280;27913;42.722;23.268;2023-01-26T11:21:05;94813.38;;;0.77;76.28
42247;BME280;27913;42.722;23.268;2023-01-26T11:24:14;94872.06;;;1.08;76.24
42247;BME280;27913;42.722;23.268;2023-01-26T11:27:27;94852.00;;;1.00;76.97
42247;BME280;27913;42.722;23.268;2023-01-26T11:32:51;94845.38;;;1.17;76.55
42247;BME280;27913;42.722;23.268;2023-01-26T11:40:31;94789.94;;;0.79;76.16
42247;BME280;27913;42.722;23.268;2023-01-26T11:56:48;94843.63;;;1.38;75.79
42247;BME280;27913;42.722;23.268;2023-01-26T12:01:47;94794.34;;;1.18;76.16
42247;BME280;27913;42.722;23.268;2023-01-26T12:04:20;94820.19;;;1.39;76.27
42247;BME280;27913;42.722;23.268;2023-01-26T12:06:53;94767.47;;;1.09;76.39
42247;BME280;27913;42.722;23.268;2023-01-26T12:09:40;94801.50;;;1.46;77.71
42247;BME280;27913;42.722;23.268;2023-01-26T12:12:24;94733.41;;;1.04;78.23
42247;BME280;27913;42.722;23.268;2023-01-26T12:14:59;94734.22;;;1.04;78.87
42247;BME280;27913;42.722;23.268;2023-01-26T12:23:15;94504.59;;;-0.45;80.33
42247;BME280;27913;42.722;23.268;2023-01-26T12:25:45;94777.31;;;1.15;81.04
42247;BME280;27913;42.722;23.268;2023-01-26T12:28:31;94710.75;;;0.76;79.67
42247;BME280;27913;42.722;23.268;2023-01-26T12:31:21;94637.94;;;0.40;81.76
42247;BME280;27913;42.722;23.268;2023-01-26T12:33:51;94748.84;;;1.15;82.67
42247;BME280;27913;42.722;23.268;2023-01-26T12:39:12;94755.78;;;1.05;83.96
42247;BME280;27913;42.722;23.268;2023-01-26T12:50:04;94751.81;;;1.01;85.34
42247;BME280;27913;42.722;23.268;2023-01-26T12:52:38;94661.91;;;0.42;84.90
42247;BME280;27913;42.722;23.268;2023-01-26T12:55:29;94747.72;;;1.08;84.04
42247;BME280;27913;42.722;23.268;2023-01-26T12:58:04;94737.63;;;1.05;83.23
42247;BME280;27913;42.722;23.268;2023-01-26T13:00:34;94564.69;;;-0.12;82.51
42247;BME280;27913;42.722;23.268;2023-01-26T13:03:23;94642.97;;;0.41;82.60
42247;BME280;27913;42.722;23.268;2023-01-26T13:06:18;94549.97;;;-0.21;82.32
42247;BME280;27913;42.722;23.268;2023-01-26T13:11:52;94675.97;;;0.49;82.40
42247;BME280;27913;42.722;23.268;2023-01-26T13:24:48;94729.19;;;0.93;83.38
42247;BME280;27913;42.722;23.268;2023-01-26T13:29:58;94723.03;;;0.84;83.75
42247;BME280;27913;42.722;23.268;2023-01-26T13:34:50;94671.97;;;0.45;84.69
42247;BME280;27913;42.722;23.268;2023-01-26T13:40:33;94663.44;;;0.54;84.42
42247;BME280;27913;42.722;23.268;2023-01-26T13:43:00;94721.38;;;0.83;84.44
42247;BME280;27913;42.722;23.268;2023-01-26T13:46:13;94611.59;;;0.15;85.10
42247;BME280;27913;42.722;23.268;2023-01-26T13:51:05;94712.50;;;0.76;84.57
42247;BME280;27913;42.722;23.268;2023-01-26T13:53:39;94723.25;;;0.71;84.96
42247;BME280;27913;42.722;23.268;2023-01-26T13:58:49;94614.06;;;0.26;84.74
42247;BME280;27913;42.722;23.268;2023-01-26T14:01:15;94607.38;;;0.14;84.53
42247;BME280;27913;42.722;23.268;2023-01-26T14:03:41;94641.91;;;0.44;84.65
42247;BME280;27913;42.722;23.268;2023-01-26T14:06:13;94613.69;;;0.41;84.46
42247;BME280;27913;42.722;23.268;2023-01-26T14:08:50;94511.34;;;-0.13;84.16
42247;BME280;27913;42.722;23.268;2023-01-26T14:11:19;94685.81;;;0.95;84.00
42247;BME280;27913;42.722;23.268;2023-01-26T14:13:50;94576.09;;;0.37;84.18
42247;BME280;27913;42.722;23.268;2023-01-26T14:16:22;94522.16;;;0.12;83.36
42247;BME280;27913;42.722;23.268;2023-01-26T14:18:48;94681.50;;;1.05;82.55
42247;BME280;27913;42.722;23.268;2023-01-26T14:21:21;94441.09;;;-0.48;82.25
42247;BME280;27913;42.722;23.268;2023-01-26T14:23:54;94691.84;;;1.05;83.04
42247;BME280;27913;42.722;23.268;2023-01-26T14:26:29;94664.44;;;0.93;82.89
42247;BME280;27913;42.722;23.268;2023-01-26T14:28:56;94687.88;;;1.01;82.57
42247;BME280;27913;42.722;23.268;2023-01-26T14:31:23;94654.31;;;0.80;82.41